Time;durP1;ratioP1;P1;durP2;ratioP2;P2;SDS_P1;SDS_P2;PMS_P1;PMS_P2;Temp;Humidity;BMP_temperature;BMP_pressure;BME280_temperature;BME280_humidity;BME280_pressure;Samples;Min_cycle;Max_cycle;Signal;HPM_P1;HPM_P2
2023/04/05 00:01:30;;;;;;;9.80;6.65;;;1.40;99.90;;;;;;5116627;27;20084;-35
2023/04/05 00:04:01;;;;;;;9.07;5.82;;;1.40;99.90;;;;;;5109981;27;20038;-35
2023/04/05 00:06:28;;;;;;;8.60;5.90;;;1.40;99.90;;;;;;5113307;27;20110;-35
2023/04/05 00:08:58;;;;;;;7.95;5.63;;;1.40;99.90;;;;;;5104542;28;20042;-35
2023/04/05 00:11:29;;;;;;;9.70;6.13;;;1.30;99.90;;;;;;5111950;27;20457;-35
2023/04/05 00:13:55;;;;;;;9.93;5.57;;;1.30;99.90;;;;;;5116254;27;20096;-35
2023/04/05 00:16:21;;;;;;;9.57;6.32;;;1.30;99.90;;;;;;5112825;27;20114;-35
2023/04/05 00:18:50;;;;;;;10.32;6.68;;;1.20;99.90;;;;;;5112572;28;20115;-34
2023/04/05 00:21:23;;;;;;;7.57;5.85;;;1.20;99.90;;;;;;5117873;27;20035;-35
2023/04/05 00:23:50;;;;;;;8.30;6.13;;;1.20;99.90;;;;;;5104220;28;20080;-35
2023/04/05 00:26:17;;;;;;;9.63;6.35;;;1.10;99.90;;;;;;5113381;27;20042;-35
2023/04/05 00:28:42;;;;;;;13.88;7.25;;;1.10;99.90;;;;;;5120450;27;20115;-35
2023/04/05 00:31:09;;;;;;;8.68;5.93;;;1.10;99.90;;;;;;5113170;27;20110;-35
2023/04/05 00:33:34;;;;;;;11.07;6.32;;;1.00;99.90;;;;;;5110928;27;20039;-35
2023/04/05 00:36:13;;;;;;;9.05;6.32;;;1.00;99.90;;;;;;5103890;28;20405;-34
2023/04/05 00:38:40;;;;;;;10.70;6.45;;;1.00;99.90;;;;;;5097620;28;20032;-35
2023/04/05 00:41:06;;;;;;;9.50;5.90;;;0.90;99.90;;;;;;5107118;27;20062;-35
2023/04/05 00:43:32;;;;;;;10.45;6.03;;;0.90;99.90;;;;;;5108644;27;20035;-35
2023/04/05 00:45:59;;;;;;;10.40;6.07;;;0.90;99.90;;;;;;5108698;28;20032;-35
2023/04/05 00:48:25;;;;;;;9.75;6.82;;;0.80;99.90;;;;;;5101767;27;20047;-35
2023/04/05 00:50:51;;;;;;;9.73;6.32;;;0.80;99.90;;;;;;5111824;27;20054;-35
2023/04/05 00:53:20;;;;;;;10.18;6.60;;;0.70;99.90;;;;;;5114198;27;20110;-35
2023/04/05 00:55:47;;;;;;;9.57;6.18;;;0.70;99.90;;;;;;5109512;27;20395;-35
2023/04/05 00:58:17;;;;;;;10.32;6.40;;;0.70;99.90;;;;;;5104693;27;20036;-35
2023/04/05 01:01:02;;;;;;;10.05;6.30;;;0.70;99.90;;;;;;5116896;27;20035;-35
2023/04/05 01:03:30;;;;;;;10.82;6.53;;;0.60;99.90;;;;;;5115823;27;20088;-35
2023/04/05 01:05:59;;;;;;;11.73;6.32;;;0.60;99.90;;;;;;5115703;27;20069;-35
2023/04/05 01:08:31;;;;;;;9.38;6.50;;;0.50;99.90;;;;;;5115825;27;20044;-35
2023/04/05 01:11:02;;;;;;;10.63;6.70;;;0.50;99.90;;;;;;5112541;27;20062;-34
2023/04/05 01:13:31;;;;;;;11.10;6.53;;;0.50;99.90;;;;;;5112483;27;20052;-35
2023/04/05 01:15:57;;;;;;;9.52;6.63;;;0.50;99.90;;;;;;5110561;27;20380;-35
2023/04/05 01:18:23;;;;;;;10.40;6.55;;;0.40;99.90;;;;;;5105648;28;20039;-35
2023/04/05 01:21:19;;;;;;;11.48;7.60;;;0.40;99.90;;;;;;5105464;27;20038;-35
2023/04/05 01:24:11;;;;;;;12.13;7.10;;;0.40;99.90;;;;;;5097822;28;20051;-35
2023/04/05 01:26:49;;;;;;;9.73;6.25;;;0.30;99.90;;;;;;5080498;27;20047;-35
2023/04/05 01:29:18;;;;;;;11.45;6.70;;;0.30;99.90;;;;;;5112989;27;20120;-35
2023/04/05 01:31:51;;;;;;;8.57;6.00;;;0.30;99.90;;;;;;5109443;28;20031;-35
2023/04/05 01:34:24;;;;;;;10.45;6.68;;;0.30;99.90;;;;;;5131970;27;20087;-35
2023/04/05 01:36:56;;;;;;;11.45;6.25;;;0.30;99.90;;;;;;5108270;27;20426;-35
2023/04/05 01:39:23;;;;;;;9.10;6.80;;;0.30;99.90;;;;;;5111312;27;20548;-35
2023/04/05 01:41:50;;;;;;;9.63;6.63;;;0.20;99.90;;;;;;5110471;27;20035;-35
2023/04/05 01:44:16;;;;;;;10.73;6.32;;;0.20;99.90;;;;;;5111069;27;20058;-35
2023/04/05 01:46:41;;;;;;;10.45;6.07;;;0.20;99.90;;;;;;5114795;27;20047;-35
2023/04/05 01:49:07;;;;;;;11.35;7.25;;;0.10;99.90;;;;;;5113800;27;20403;-35
2023/04/05 01:51:33;;;;;;;10.75;6.85;;;0.10;99.90;;;;;;5109848;27;20484;-35
2023/04/05 01:53:59;;;;;;;10.02;7.07;;;0.20;99.90;;;;;;5119579;27;20172;-35
2023/04/05 01:56:24;;;;;;;12.30;6.60;;;0.10;99.90;;;;;;5106065;27;20400;-35
2023/04/05 01:58:50;;;;;;;10.10;6.70;;;0.10;99.90;;;;;;5123300;27;20484;-35
2023/04/05 02:01:16;;;;;;;10.45;6.88;;;0.10;99.90;;;;;;5119173;27;20036;-35
2023/04/05 02:03:41;;;;;;;10.25;6.97;;;0.10;99.90;;;;;;5113595;27;20106;-34
2023/04/05 02:06:07;;;;;;;10.30;6.82;;;0.00;99.90;;;;;;5120588;27;20589;-35
2023/04/05 02:08:33;;;;;;;10.05;7.30;;;0.10;99.90;;;;;;5111074;28;20480;-35
2023/04/05 02:10:58;;;;;;;13.00;7.72;;;0.00;99.90;;;;;;5108773;27;20035;-38
2023/04/05 02:13:27;;;;;;;15.55;7.30;;;0.00;99.90;;;;;;5102682;27;20047;-35
2023/04/05 02:15:53;;;;;;;11.05;6.90;;;0.00;99.90;;;;;;5115253;27;20541;-35
2023/04/05 02:18:21;;;;;;;9.85;7.32;;;-0.10;99.90;;;;;;5112215;27;20063;-35
2023/04/05 02:20:50;;;;;;;11.32;7.53;;;-0.10;99.90;;;;;;5102041;27;20108;-35
2023/04/05 02:23:18;;;;;;;10.35;7.13;;;-0.10;99.90;;;;;;5112124;27;20039;-35
2023/04/05 02:25:44;;;;;;;11.90;7.30;;;-0.20;99.90;;;;;;5108676;27;20035;-35
2023/04/05 02:28:10;;;;;;;11.32;7.70;;;-0.20;99.90;;;;;;5106068;27;20126;-35
2023/04/05 02:30:36;;;;;;;10.25;7.47;;;-0.20;99.90;;;;;;5109803;28;20114;-34
2023/04/05 02:33:02;;;;;;;10.63;7.38;;;-0.20;99.90;;;;;;5110244;27;20039;-35
2023/04/05 02:35:27;;;;;;;15.68;7.95;;;-0.20;99.90;;;;;;5095746;27;20047;-35
2023/04/05 02:37:53;;;;;;;10.88;7.03;;;-0.20;99.90;;;;;;5108221;27;20038;-35
2023/04/05 02:40:21;;;;;;;11.77;7.15;;;-0.30;99.90;;;;;;5118854;27;20122;-35
2023/04/05 02:42:47;;;;;;;10.40;7.10;;;-0.30;99.90;;;;;;5111706;28;20491;-35
2023/04/05 02:45:13;;;;;;;12.40;7.72;;;-0.30;99.90;;;;;;5113641;28;20104;-35
2023/04/05 02:47:38;;;;;;;11.95;7.93;;;-0.30;99.90;;;;;;5099877;28;20059;-35
2023/04/05 02:50:05;;;;;;;13.75;7.07;;;-0.40;99.90;;;;;;5113521;28;20826;-35
2023/04/05 02:52:31;;;;;;;11.57;7.65;;;-0.40;99.90;;;;;;5113267;28;20027;-35
2023/04/05 02:54:56;;;;;;;13.75;8.10;;;-0.40;99.90;;;;;;5119998;27;20048;-35
2023/04/05 02:57:22;;;;;;;11.25;7.97;;;-0.40;99.90;;;;;;5114158;27;20178;-35
2023/04/05 02:59:48;;;;;;;11.05;7.25;;;-0.40;99.90;;;;;;5109975;28;20053;-34
2023/04/05 03:02:15;;;;;;;11.07;7.68;;;-0.40;99.90;;;;;;5110103;27;20043;-35
2023/04/05 03:04:43;;;;;;;11.73;8.40;;;-0.40;99.90;;;;;;5115590;28;20035;-35
2023/04/05 03:07:09;;;;;;;10.10;7.03;;;-0.50;99.90;;;;;;5120887;28;20492;-35
2023/04/05 03:09:37;;;;;;;13.10;7.93;;;-0.50;99.90;;;;;;5114071;28;20046;-35
2023/04/05 03:12:03;;;;;;;12.90;8.02;;;-0.50;99.90;;;;;;5102407;27;20039;-35
2023/04/05 03:14:30;;;;;;;11.90;8.02;;;-0.50;99.90;;;;;;5104909;28;20129;-35
2023/04/05 03:16:56;;;;;;;12.30;7.10;;;-0.50;99.90;;;;;;5113522;28;20089;-34
2023/04/05 03:19:22;;;;;;;14.13;8.15;;;-0.60;99.90;;;;;;5097465;28;20501;-35
2023/04/05 03:21:48;;;;;;;13.23;8.05;;;-0.60;99.90;;;;;;5103546;28;20028;-34
2023/04/05 03:24:15;;;;;;;9.32;7.40;;;-0.60;99.90;;;;;;5103860;27;20031;-35
2023/04/05 03:26:44;;;;;;;13.95;7.65;;;-0.60;99.90;;;;;;5108946;28;20396;-34
2023/04/05 03:29:10;;;;;;;13.65;8.48;;;-0.60;99.90;;;;;;5109691;27;20031;-35
2023/04/05 03:31:35;;;;;;;13.85;7.78;;;-0.60;99.90;;;;;;5104815;28;20047;-34
2023/04/05 03:34:01;;;;;;;11.82;7.35;;;-0.70;99.90;;;;;;5106617;28;20031;-35
2023/04/05 03:36:29;;;;;;;9.20;7.25;;;-0.70;99.90;;;;;;5104260;28;20114;-35
2023/04/05 03:38:55;;;;;;;12.52;7.63;;;-0.70;99.90;;;;;;5103440;28;20042;-34
2023/04/05 03:41:21;;;;;;;12.60;7.95;;;-0.80;99.90;;;;;;5105389;27;20027;-35
2023/04/05 03:43:48;;;;;;;11.20;7.78;;;-0.80;99.90;;;;;;5112458;27;20110;-34
2023/04/05 03:46:14;;;;;;;11.05;8.07;;;-0.80;99.90;;;;;;5117104;27;20034;-34
2023/04/05 03:48:40;;;;;;;12.48;7.97;;;-0.80;99.90;;;;;;5106385;27;20114;-34
2023/04/05 03:51:06;;;;;;;11.52;7.65;;;-0.80;99.90;;;;;;5116066;27;20039;-34
2023/04/05 03:53:32;;;;;;;13.05;8.48;;;-0.80;99.90;;;;;;5116189;27;20067;-34
2023/04/05 03:55:58;;;;;;;17.08;8.95;;;-0.80;99.90;;;;;;5092256;28;20067;-34
2023/04/05 03:58:27;;;;;;;12.18;8.40;;;-0.80;99.90;;;;;;5108923;27;20060;-34
2023/04/05 04:00:54;;;;;;;13.93;8.73;;;-0.80;99.90;;;;;;5107811;28;20115;-34
2023/04/05 04:03:20;;;;;;;13.23;8.32;;;-0.90;99.90;;;;;;5112531;27;20074;-34
2023/04/05 04:05:46;;;;;;;12.40;8.18;;;-0.90;99.90;;;;;;5104444;28;20059;-35
2023/04/05 04:08:12;;;;;;;13.98;8.68;;;-0.90;99.90;;;;;;5106390;27;20043;-35
2023/04/05 04:10:38;;;;;;;14.07;9.40;;;-0.90;99.90;;;;;;5094685;28;20031;-35
2023/04/05 04:13:03;;;;;;;14.90;8.70;;;-0.90;99.90;;;;;;5116372;27;20039;-34
2023/04/05 04:15:30;;;;;;;11.88;8.20;;;-0.90;99.90;;;;;;5109529;27;20046;-34
2023/04/05 04:17:55;;;;;;;12.85;8.40;;;-1.00;99.90;;;;;;5117142;27;20046;-34
2023/04/05 04:20:21;;;;;;;13.38;8.60;;;-1.00;99.90;;;;;;5109133;27;20095;-35
2023/04/05 04:22:48;;;;;;;15.20;9.48;;;-1.00;99.90;;;;;;5110747;27;20054;-34
2023/04/05 04:25:17;;;;;;;13.57;9.13;;;-1.00;99.90;;;;;;5113776;27;20035;-34
2023/04/05 04:27:45;;;;;;;13.90;8.25;;;-1.10;99.90;;;;;;5116127;27;20098;-34
2023/04/05 04:30:13;;;;;;;12.45;8.15;;;-1.00;99.90;;;;;;5115880;27;20043;-34
2023/04/05 04:32:53;;;;;;;12.00;8.77;;;-1.10;99.90;;;;;;5113336;27;20032;-34
2023/04/05 04:35:27;;;;;;;15.25;9.43;;;-1.10;99.90;;;;;;5114613;27;20076;-35
2023/04/05 04:38:01;;;;;;;16.38;9.18;;;-1.10;99.90;;;;;;5112510;27;20041;-34
2023/04/05 04:40:57;;;;;;;13.07;9.43;;;-1.10;99.90;;;;;;5117719;27;20031;-35
2023/04/05 04:43:26;;;;;;;16.10;10.35;;;-1.20;99.90;;;;;;5121570;27;20043;-35
2023/04/05 04:45:53;;;;;;;15.20;9.15;;;-1.20;99.90;;;;;;5120475;27;20070;-34
2023/04/05 04:48:19;;;;;;;14.32;9.88;;;-1.20;99.90;;;;;;5110502;27;20559;-35
2023/04/05 04:50:47;;;;;;;15.55;9.68;;;-1.20;99.90;;;;;;5110145;27;20403;-35
2023/04/05 04:53:16;;;;;;;17.58;9.77;;;-1.20;99.90;;;;;;5112735;27;20042;-34
2023/04/05 04:55:42;;;;;;;12.57;8.68;;;-1.20;99.90;;;;;;5111755;27;20308;-34
2023/04/05 04:58:11;;;;;;;16.77;9.93;;;-1.20;99.90;;;;;;5100392;27;20125;-34
2023/04/05 05:00:39;;;;;;;13.63;9.38;;;-1.20;99.90;;;;;;5114538;27;20041;-34
2023/04/05 05:03:05;;;;;;;17.73;10.15;;;-1.20;99.90;;;;;;5112058;27;20039;-34
2023/04/05 05:05:31;;;;;;;11.85;9.13;;;-1.20;99.90;;;;;;5100978;27;20488;-34
2023/04/05 05:07:57;;;;;;;14.15;9.40;;;-1.30;99.90;;;;;;5119345;27;20034;-34
2023/04/05 05:10:23;;;;;;;13.63;9.85;;;-1.20;99.90;;;;;;5111648;27;20454;-35
2023/04/05 05:12:48;;;;;;;17.25;10.32;;;-1.20;99.90;;;;;;5109088;28;20036;-35
2023/04/05 05:15:14;;;;;;;16.02;9.70;;;-1.30;99.90;;;;;;5110045;27;20047;-34
2023/04/05 05:17:40;;;;;;;18.10;9.40;;;-1.20;99.90;;;;;;5115179;27;20471;-34
2023/04/05 05:20:09;;;;;;;16.48;10.85;;;-1.20;99.90;;;;;;5109270;27;20078;-34
2023/04/05 05:22:36;;;;;;;15.32;9.80;;;-1.20;99.90;;;;;;5107878;27;20218;-35
2023/04/05 05:25:03;;;;;;;14.63;10.32;;;-1.20;99.90;;;;;;5115733;27;20035;-35
2023/04/05 05:27:28;;;;;;;14.82;9.52;;;-1.20;99.90;;;;;;5113540;27;20092;-34
2023/04/05 05:29:54;;;;;;;15.43;10.38;;;-1.20;99.90;;;;;;5108560;28;20039;-34
2023/04/05 05:32:21;;;;;;;21.92;11.85;;;-1.20;99.90;;;;;;5106374;27;20046;-35
2023/04/05 05:34:48;;;;;;;14.15;10.20;;;-1.10;99.90;;;;;;5115233;27;20118;-34
2023/04/05 05:37:13;;;;;;;22.02;12.90;;;-1.10;99.90;;;;;;5109016;27;20047;-34
2023/04/05 05:39:39;;;;;;;17.10;11.88;;;-1.10;99.90;;;;;;5113093;27;20036;-34
2023/04/05 05:42:05;;;;;;;19.73;13.02;;;-1.10;99.90;;;;;;5109745;27;20066;-34
2023/04/05 05:44:31;;;;;;;19.52;13.32;;;-1.10;99.90;;;;;;5110251;27;20028;-35
2023/04/05 05:46:57;;;;;;;19.45;11.88;;;-1.10;99.90;;;;;;5118649;27;20031;-35
2023/04/05 05:49:24;;;;;;;20.20;12.75;;;-1.10;99.90;;;;;;5114111;27;20046;-34
2023/04/05 05:51:51;;;;;;;20.98;13.23;;;-1.10;99.90;;;;;;5115869;27;20086;-34
2023/04/05 05:54:17;;;;;;;18.40;13.63;;;-1.00;99.90;;;;;;5116344;27;20078;-34
2023/04/05 05:56:43;;;;;;;20.33;12.43;;;-1.00;99.90;;;;;;5115736;27;20070;-34
2023/04/05 05:59:09;;;;;;;18.52;13.48;;;-0.90;99.90;;;;;;5112164;27;20175;-34
2023/04/05 06:01:41;;;;;;;21.52;13.30;;;-0.90;99.90;;;;;;5112903;27;20472;-35
2023/04/05 06:04:07;;;;;;;20.73;12.23;;;-0.90;99.90;;;;;;5106058;27;20031;-35
2023/04/05 06:06:34;;;;;;;18.85;12.20;;;-0.80;99.90;;;;;;5116044;27;20035;-34
2023/04/05 06:09:00;;;;;;;17.92;13.10;;;-0.70;99.90;;;;;;5108238;27;20023;-34
2023/04/05 06:11:26;;;;;;;18.15;12.02;;;-0.70;99.90;;;;;;5113634;27;20039;-35
2023/04/05 06:13:53;;;;;;;20.35;13.40;;;-0.70;99.90;;;;;;5108870;27;20036;-35
2023/04/05 06:16:20;;;;;;;19.38;12.93;;;-0.60;99.90;;;;;;5111345;27;20023;-34
2023/04/05 06:18:46;;;;;;;23.70;13.95;;;-0.50;99.90;;;;;;5111723;27;20508;-34
2023/04/05 06:21:12;;;;;;;18.85;13.18;;;-0.50;99.90;;;;;;5113277;27;20035;-35
2023/04/05 06:23:41;;;;;;;17.92;13.20;;;-0.40;99.90;;;;;;5115323;27;20023;-34
2023/04/05 06:26:07;;;;;;;18.90;13.27;;;-0.30;99.90;;;;;;5104776;27;20032;-34
2023/04/05 06:28:33;;;;;;;20.73;13.60;;;-0.20;99.90;;;;;;5111990;27;20063;-34
2023/04/05 06:30:59;;;;;;;22.70;13.57;;;-0.20;99.90;;;;;;5114234;27;20087;-35
2023/04/05 06:33:25;;;;;;;21.85;14.68;;;-0.10;99.90;;;;;;5124432;27;20035;-34
2023/04/05 06:35:51;;;;;;;19.30;14.63;;;0.00;99.90;;;;;;5110993;27;20372;-35
2023/04/05 06:38:17;;;;;;;21.25;13.93;;;0.00;99.90;;;;;;5113080;27;20122;-35
2023/04/05 06:40:43;;;;;;;20.63;14.48;;;0.20;99.90;;;;;;5107580;27;20066;-35
2023/04/05 06:43:11;;;;;;;20.15;14.95;;;0.30;99.90;;;;;;5110051;28;20039;-35
2023/04/05 06:45:37;;;;;;;18.95;13.90;;;0.40;99.90;;;;;;5107448;27;20377;-35
2023/04/05 06:48:03;;;;;;;19.85;12.80;;;0.40;99.90;;;;;;5118221;28;20065;-35
2023/04/05 06:50:29;;;;;;;20.55;14.90;;;0.60;99.90;;;;;;5119140;27;20041;-35
2023/04/05 06:52:55;;;;;;;22.42;16.15;;;0.60;99.90;;;;;;5111632;27;20039;-35
2023/04/05 06:55:21;;;;;;;21.10;15.07;;;0.70;99.90;;;;;;5110818;28;20042;-34
2023/04/05 06:57:47;;;;;;;19.40;14.40;;;0.80;99.90;;;;;;5106533;28;20035;-35
2023/04/05 07:00:16;;;;;;;18.65;13.68;;;1.00;99.90;;;;;;5105196;28;20088;-34
2023/04/05 07:02:42;;;;;;;20.92;13.68;;;1.00;99.90;;;;;;5109303;28;20608;-35
2023/04/05 07:05:09;;;;;;;20.98;14.73;;;1.20;99.90;;;;;;5105768;27;20118;-35
2023/04/05 07:07:39;;;;;;;18.45;14.20;;;1.30;99.90;;;;;;5127144;27;20031;-34
2023/04/05 07:10:06;;;;;;;17.65;14.05;;;1.40;99.90;;;;;;5108846;27;20039;-35
2023/04/05 07:12:31;;;;;;;16.55;12.13;;;1.50;99.90;;;;;;5112551;28;20071;-35
2023/04/05 07:14:58;;;;;;;19.20;12.63;;;1.60;99.90;;;;;;5103576;27;20069;-35
2023/04/05 07:17:24;;;;;;;17.27;13.05;;;1.70;99.90;;;;;;5106158;27;20036;-35
2023/04/05 07:19:50;;;;;;;16.40;12.80;;;1.80;99.90;;;;;;5111856;28;20122;-34
2023/04/05 07:22:16;;;;;;;18.95;13.63;;;2.00;99.90;;;;;;5105837;27;20071;-35
2023/04/05 07:24:44;;;;;;;17.48;12.93;;;2.20;99.90;;;;;;5135747;27;20459;-35
2023/04/05 07:27:13;;;;;;;17.90;13.45;;;2.40;99.90;;;;;;5105190;28;20032;-35
2023/04/05 07:29:41;;;;;;;16.30;12.93;;;2.50;99.90;;;;;;5109582;27;20444;-35
2023/04/05 07:32:07;;;;;;;17.83;12.98;;;2.60;99.90;;;;;;5104896;28;20561;-35
2023/04/05 07:34:34;;;;;;;16.60;12.77;;;2.70;99.90;;;;;;5100148;27;20039;-35
2023/04/05 07:37:00;;;;;;;15.75;12.82;;;2.90;99.90;;;;;;5116757;27;20050;-35
2023/04/05 07:39:26;;;;;;;17.70;12.30;;;3.00;99.90;;;;;;5113166;27;20043;-35
2023/04/05 07:41:52;;;;;;;16.00;12.20;;;3.20;99.90;;;;;;5116984;27;20031;-35
2023/04/05 07:44:17;;;;;;;14.63;12.30;;;3.40;99.90;;;;;;5108599;27;20165;-35
2023/04/05 07:46:44;;;;;;;15.10;11.82;;;3.60;99.90;;;;;;5106550;27;20038;-35
2023/04/05 07:49:10;;;;;;;18.88;12.35;;;3.80;99.90;;;;;;5108971;27;20050;-35
2023/04/05 07:51:37;;;;;;;14.85;11.60;;;4.00;99.90;;;;;;5112408;27;20032;-35
2023/04/05 07:54:06;;;;;;;18.25;11.98;;;4.30;99.90;;;;;;5111733;27;20199;-35
2023/04/05 07:56:32;;;;;;;15.77;11.63;;;4.60;99.90;;;;;;5107181;27;20027;-35
2023/04/05 07:58:58;;;;;;;14.18;11.50;;;4.90;99.90;;;;;;5112449;27;20035;-35
2023/04/05 08:01:26;;;;;;;13.40;10.82;;;5.20;99.90;;;;;;5107465;27;20524;-35
2023/04/05 08:03:56;;;;;;;17.58;11.77;;;5.40;99.90;;;;;;5107760;27;20073;-35
2023/04/05 08:06:23;;;;;;;15.25;11.07;;;5.60;99.90;;;;;;5116676;27;20486;-35
2023/04/05 08:08:49;;;;;;;13.85;10.18;;;6.00;99.90;;;;;;5119444;27;20027;-35
2023/04/05 08:11:15;;;;;;;15.15;10.60;;;6.30;99.90;;;;;;5108606;27;20195;-35
2023/04/05 08:13:41;;;;;;;12.85;9.43;;;6.60;99.90;;;;;;5107135;27;20088;-35
2023/04/05 08:16:08;;;;;;;12.27;10.05;;;6.70;99.90;;;;;;5111242;28;20040;-35
2023/04/05 08:18:34;;;;;;;12.77;9.55;;;6.90;99.90;;;;;;5115772;27;20092;-35
2023/04/05 08:21:00;;;;;;;10.98;9.18;;;6.90;99.90;;;;;;5116022;27;20043;-35
2023/04/05 08:23:26;;;;;;;9.10;7.68;;;7.10;99.90;;;;;;5114292;27;20028;-35
2023/04/05 08:25:52;;;;;;;9.52;8.48;;;7.40;99.90;;;;;;5109693;27;20073;-36
2023/04/05 08:28:18;;;;;;;12.85;8.90;;;7.50;99.90;;;;;;5115693;27;20035;-35
2023/04/05 08:30:44;;;;;;;10.18;8.88;;;7.80;99.90;;;;;;5110906;27;20100;-35
2023/04/05 08:33:10;;;;;;;9.82;8.50;;;7.80;99.90;;;;;;5115881;27;20046;-35
2023/04/05 08:35:37;;;;;;;9.05;7.63;;;8.00;99.90;;;;;;5107310;27;20035;-35
2023/04/05 08:38:04;;;;;;;11.00;7.82;;;8.20;99.90;;;;;;5115295;27;20043;-36
2023/04/05 08:40:50;;;;;;;8.95;7.22;;;8.40;99.90;;;;;;5104754;27;20035;-35
2023/04/05 08:43:43;;;;;;;9.55;6.53;;;8.80;99.90;;;;;;5101985;27;20144;-35
2023/04/05 08:46:13;;;;;;;7.28;5.97;;;9.10;75.50;;;;;;5111128;27;20534;-36
2023/04/05 08:48:40;;;;;;;7.22;5.60;;;9.30;99.90;;;;;;5108782;27;20099;-35
2023/04/05 08:51:08;;;;;;;8.93;5.95;;;9.70;99.90;;;;;;5115496;27;20043;-35
2023/04/05 08:53:34;;;;;;;8.50;5.65;;;10.20;99.90;;;;;;5114637;27;20118;-35
2023/04/05 08:56:02;;;;;;;6.78;5.30;;;10.60;99.90;;;;;;5112617;27;20043;-35
2023/04/05 08:58:29;;;;;;;9.50;5.47;;;10.70;99.90;;;;;;5113786;27;20083;-36
2023/04/05 09:00:56;;;;;;;6.43;5.80;;;10.70;99.90;;;;;;5106763;27;20118;-36
2023/04/05 09:03:25;;;;;;;8.48;6.15;;;11.20;99.90;;;;;;5113607;27;20072;-35
2023/04/05 09:05:52;;;;;;;8.38;4.93;;;11.40;99.90;;;;;;5105738;27;20034;-36
2023/04/05 09:08:21;;;;;;;6.00;4.75;;;11.70;99.90;;;;;;5115346;27;20562;-36
2023/04/05 09:10:50;;;;;;;7.25;5.38;;;11.90;68.10;;;;;;5108026;28;20039;-36
2023/04/05 09:13:16;;;;;;;5.68;4.97;;;11.90;76.40;;;;;;5102618;27;20051;-36
2023/04/05 09:15:42;;;;;;;7.28;4.97;;;12.00;75.50;;;;;;5105158;27;20188;-36
2023/04/05 09:18:08;;;;;;;5.18;4.40;;;12.00;68.10;;;;;;5110286;27;20039;-36
2023/04/05 09:20:34;;;;;;;9.15;4.55;;;12.00;61.60;;;;;;5106650;27;20036;-36
2023/04/05 09:23:00;;;;;;;5.95;3.65;;;12.00;61.10;;;;;;5105723;27;20107;-36
2023/04/05 09:25:37;;;;;;;5.05;3.33;;;11.70;57.60;;;;;;5107323;27;20042;-36
2023/04/05 09:28:07;;;;;;;4.00;3.30;;;11.70;55.40;;;;;;5088900;28;20040;-36
2023/04/05 09:30:35;;;;;;;4.32;3.60;;;12.00;57.60;;;;;;5107644;27;20035;-36
2023/04/05 09:33:02;;;;;;;5.10;3.10;;;12.30;56.60;;;;;;5113213;27;20067;-36
2023/04/05 09:35:30;;;;;;;4.60;3.40;;;12.20;54.50;;;;;;5103736;27;20031;-36
2023/04/05 09:37:57;;;;;;;7.07;3.70;;;12.20;54.10;;;;;;5114646;27;20113;-35
2023/04/05 09:40:22;;;;;;;6.80;4.03;;;12.40;54.80;;;;;;5106954;27;20040;-36
2023/04/05 09:42:48;;;;;;;6.78;4.45;;;12.30;53.10;;;;;;5102068;27;20081;-35
2023/04/05 09:45:17;;;;;;;5.78;3.88;;;12.40;53.20;;;;;;5112743;27;20035;-36
2023/04/05 09:47:53;;;;;;;5.15;3.53;;;12.30;53.10;;;;;;5113310;27;20034;-36
2023/04/05 09:50:19;;;;;;;6.70;4.13;;;12.60;53.50;;;;;;5113234;27;20489;-36
2023/04/05 09:52:45;;;;;;;4.55;3.55;;;13.00;54.10;;;;;;5107508;27;20043;-36
2023/04/05 09:55:11;;;;;;;6.47;4.50;;;13.40;53.70;;;;;;5114165;27;20045;-36
2023/04/05 09:57:41;;;;;;;4.80;4.30;;;14.00;54.10;;;;;;5107553;27;20066;-36
2023/04/05 10:00:18;;;;;;;4.72;3.80;;;14.40;53.20;;;;;;5114210;27;20043;-36
2023/04/05 10:02:46;;;;;;;5.65;4.38;;;14.60;49.40;;;;;;5102175;28;20028;-36
2023/04/05 10:05:15;;;;;;;5.00;4.22;;;14.20;50.10;;;;;;5118006;27;20038;-36
2023/04/05 10:07:41;;;;;;;4.47;3.97;;;13.90;49.10;;;;;;5101826;28;20043;-36
2023/04/05 10:10:11;;;;;;;5.47;4.13;;;14.30;50.10;;;;;;5112237;27;20039;-37
2023/04/05 10:12:40;;;;;;;4.15;3.60;;;14.20;48.30;;;;;;5105502;27;20039;-37
2023/04/05 10:15:10;;;;;;;7.47;4.50;;;14.50;49.20;;;;;;5106302;28;20059;-37
2023/04/05 10:17:48;;;;;;;6.68;5.70;;;14.50;48.60;;;;;;5111423;27;20168;-37
2023/04/05 10:20:19;;;;;;;6.82;4.35;;;14.60;46.00;;;;;;5108106;27;20114;-37
2023/04/05 10:22:50;;;;;;;5.20;4.70;;;14.70;48.20;;;;;;5118002;27;20027;-37
2023/04/05 10:25:38;;;;;;;7.30;5.10;;;14.50;45.70;;;;;;5108778;27;20043;-37
2023/04/05 10:28:09;;;;;;;5.75;4.63;;;14.50;45.10;;;;;;5114020;27;20035;-37
2023/04/05 10:30:42;;;;;;;5.20;4.60;;;14.30;46.90;;;;;;5106720;27;20527;-36
2023/04/05 10:33:23;;;;;;;6.20;4.35;;;14.80;47.00;;;;;;5109938;27;20043;-37
2023/04/05 10:36:11;;;;;;;4.85;4.43;;;14.70;45.70;;;;;;5103168;28;20046;-37
2023/04/05 10:38:58;;;;;;;4.78;4.25;;;15.40;46.70;;;;;;5110247;27;20042;-36
2023/04/05 10:41:24;;;;;;;4.95;4.38;;;16.10;45.50;;;;;;5124106;27;20042;-36
2023/04/05 10:43:53;;;;;;;5.50;4.22;;;16.00;45.10;;;;;;5108163;27;20035;-37
2023/04/05 10:46:22;;;;;;;5.05;4.65;;;15.60;44.20;;;;;;5109971;28;20488;-36
2023/04/05 10:49:13;;;;;;;5.22;4.72;;;15.70;45.50;;;;;;5103969;28;20104;-36
2023/04/05 10:51:39;;;;;;;5.20;4.43;;;15.90;43.60;;;;;;5109228;28;20031;-36
2023/04/05 10:54:08;;;;;;;5.05;4.55;;;15.70;44.30;;;;;;5113537;28;20092;-36
2023/04/05 10:56:34;;;;;;;5.00;4.30;;;15.80;44.20;;;;;;5110381;27;20107;-36
2023/04/05 10:59:00;;;;;;;4.55;4.18;;;16.00;44.80;;;;;;5101901;28;20043;-37
2023/04/05 11:01:26;;;;;;;5.68;4.32;;;16.70;44.10;;;;;;5120293;27;20032;-37
2023/04/05 11:03:53;;;;;;;5.25;4.10;;;15.70;41.40;;;;;;5102150;28;20035;-37
2023/04/05 11:06:20;;;;;;;6.78;4.47;;;15.90;43.20;;;;;;5099651;28;20047;-37
2023/04/05 11:08:48;;;;;;;5.43;4.03;;;16.40;43.20;;;;;;5111386;28;20039;-36
2023/04/05 11:11:16;;;;;;;4.38;3.97;;;16.70;43.40;;;;;;5113043;28;20047;-36
2023/04/05 11:13:50;;;;;;;5.82;4.35;;;17.40;42.20;;;;;;5104797;27;20038;-37
2023/04/05 11:16:16;;;;;;;5.78;4.95;;;18.00;41.40;;;;;;5104859;28;20492;-36
2023/04/05 11:18:50;;;;;;;4.45;4.05;;;18.60;41.40;;;;;;5093232;28;20104;-37
2023/04/05 11:21:22;;;;;;;4.75;4.30;;;18.60;39.20;;;;;;5098958;28;20427;-37
2023/04/05 11:24:08;;;;;;;5.03;4.53;;;19.10;39.40;;;;;;5106101;28;20110;-37
2023/04/05 11:26:40;;;;;;;4.95;4.55;;;19.00;38.10;;;;;;5109259;28;20114;-36
2023/04/05 11:29:06;;;;;;;4.88;4.05;;;18.60;38.10;;;;;;5113671;27;20092;-37
2023/04/05 11:31:32;;;;;;;5.60;4.70;;;18.00;38.70;;;;;;5109444;28;20407;-37
2023/04/05 11:34:11;;;;;;;6.03;4.90;;;17.90;38.90;;;;;;5108573;28;20024;-37
2023/04/05 11:36:46;;;;;;;4.88;4.22;;;17.80;37.80;;;;;;5102938;28;20110;-37
2023/04/05 11:39:21;;;;;;;5.65;4.95;;;17.90;38.30;;;;;;5100783;28;20035;-37
2023/04/05 11:41:57;;;;;;;5.78;4.72;;;18.00;36.80;;;;;;5107079;28;20106;-36
2023/04/05 11:44:23;;;;;;;7.15;5.50;;;17.90;37.10;;;;;;5102310;27;20036;-37
2023/04/05 11:46:49;;;;;;;5.28;4.50;;;18.00;37.30;;;;;;5109402;28;20028;-37
2023/04/05 11:49:15;;;;;;;4.80;4.38;;;18.20;37.00;;;;;;5101676;28;20712;-37
2023/04/05 11:51:41;;;;;;;6.15;4.50;;;18.90;37.50;;;;;;5109643;28;20035;-37
2023/04/05 11:54:10;;;;;;;5.55;4.80;;;19.00;36.20;;;;;;5128108;27;20122;-36
2023/04/05 11:56:36;;;;;;;8.48;6.00;;;19.00;35.80;;;;;;5109682;27;20039;-36
2023/04/05 11:59:02;;;;;;;5.30;4.80;;;18.90;36.80;;;;;;5096497;28;20032;-36
2023/04/05 12:01:28;;;;;;;5.82;4.50;;;18.80;36.30;;;;;;5099861;27;20533;-36
2023/04/05 12:03:54;;;;;;;4.75;4.15;;;19.00;35.80;;;;;;5111655;27;20038;-36
2023/04/05 12:06:25;;;;;;;5.97;4.55;;;18.90;36.40;;;;;;5110386;27;20514;-37
2023/04/05 12:08:52;;;;;;;4.47;4.07;;;19.20;36.40;;;;;;5116963;27;20031;-37
2023/04/05 12:11:26;;;;;;;5.50;4.53;;;19.80;36.80;;;;;;5106960;28;20128;-37
2023/04/05 12:14:01;;;;;;;4.70;4.30;;;20.60;36.50;;;;;;5103254;27;20035;-37
2023/04/05 12:16:28;;;;;;;5.75;4.10;;;21.30;35.40;;;;;;5116241;27;20035;-37
2023/04/05 12:18:54;;;;;;;4.60;4.20;;;21.10;34.90;;;;;;5116294;27;20161;-37
2023/04/05 12:21:20;;;;;;;6.38;4.50;;;21.10;34.40;;;;;;5113564;27;20039;-37
2023/04/05 12:23:47;;;;;;;4.30;4.00;;;21.40;33.70;;;;;;5116203;27;20037;-38
2023/04/05 12:26:13;;;;;;;6.00;4.88;;;22.00;34.60;;;;;;5107729;27;20119;-37
2023/04/05 12:28:50;;;;;;;4.95;4.38;;;21.60;33.00;;;;;;5108993;27;20442;-37
2023/04/05 12:31:16;;;;;;;5.30;4.70;;;21.60;32.00;;;;;;5111572;27;20050;-37
2023/04/05 12:33:43;;;;;;;5.43;4.60;;;21.40;33.40;;;;;;5114354;27;20046;-37
2023/04/05 12:36:10;;;;;;;6.22;4.78;;;20.70;33.10;;;;;;5115809;27;20065;-37
2023/04/05 12:38:37;;;;;;;7.22;4.68;;;19.90;34.00;;;;;;5118696;27;20070;-37
2023/04/05 12:41:03;;;;;;;5.25;4.50;;;20.30;34.10;;;;;;5119218;27;20118;-37
2023/04/05 12:43:42;;;;;;;5.35;4.07;;;20.60;33.70;;;;;;5109778;27;20113;-37
2023/04/05 12:46:15;;;;;;;6.00;4.50;;;20.90;33.50;;;;;;5136536;27;20045;-37
2023/04/05 12:48:41;;;;;;;4.45;4.05;;;20.20;32.70;;;;;;5104674;28;20028;-37